Earlmount, Washington
Current Conditions -  °F | °C
As of 9:53 AM on Monday 26 Jan 2015 (Local Time) from KBFI Reporting Station
Scattered Clouds Scattered Clouds  
Wind Chill: 50°   Ceiling: Unl
Heat Index: 50°   Visibility: 10mi
Dew Point: 44°   Wind: 3mph
Humidity: 80%   Direction: 140°SE
Pressure: 29.96"   Gusts: NA
Location:  47.6833°N, 122.123°W
Report Text: KBFI 261753Z 14003KT 10SM FEW001 SCT250 10/07 A2996 RMK AO2 SLP145 BCFG SE T01000067 10100 20072 51003
Loading
Personal Weather Stations






























Interactive Weather Map New forecast layout! Learn more

10-Day Weather Forecast

Advertisements
Track Severe Weather on mobile